CheckWX is a tool to help pilots better visualize weather data.  It is not intended as a substitute for an official pre-flight weather briefing.

18:55:29 UTC

KCQX METAR
Chatham Municipal Airport
Chatham, Massachusetts, USA
Current

1 hour ago

KCQX 221752Z AUTO VRB06KT 10SM CLR 05/M05 A3030 RMK AO2 SLP262 T00501050 10050 20028 50007
Observed
Feb-22 @ 17:52 UTC
Wind
  • Variable at 6 KTS
Visibility
10 SM
Flight Rules
VFR
Cloud Levels
  • Clear skies
Temperature
C / 41°F
Dewpoint
-5°C / 23°F
Humidity
49%
Altimeter
30.3" Hg
Pressure
1026.2 hPa
Previous

2 hours ago

KCQX 221652Z AUTO 35010G17KT 310V010 10SM CLR 05/M05 A3030 RMK AO2 SLP262 T00501050
Observed
Feb-22 @ 16:52 UTC
Wind
  • 350° at 10 KTS
  • Gusting to KTS
Visibility
10 SM
Flight Rules
VFR
Cloud Levels
  • Clear skies
Temperature
C / 41°F
Dewpoint
-5°C / 23°F
Humidity
49%
Altimeter
30.3" Hg
Pressure
1026.2 hPa
Previous

3 hours ago

KCQX 221552Z AUTO VRB06G18KT 10SM CLR 04/M05 A3029 RMK AO2 SLP260 T00441050
Observed
Feb-22 @ 15:52 UTC
Wind
  • Variable at 6 KTS
  • Gusting to KTS
Visibility
10 SM
Flight Rules
VFR
Cloud Levels
  • Clear skies
Temperature
C / 39°F
Dewpoint
-5°C / 23°F
Humidity
52%
Altimeter
30.29" Hg
Pressure
1026 hPa